sensor_id;sensor_type;location;lat;lon;timestamp;temperature;humidity
4699;DHT22;33708;49.466;11.176;2024-01-30T00:01:22;-0.90;1.00
4699;DHT22;33708;49.466;11.176;2024-01-30T00:03:47;-1.00;1.00
4699;DHT22;33708;49.466;11.176;2024-01-30T00:06:13;-0.90;1.00
4699;DHT22;33708;49.466;11.176;2024-01-30T00:08:38;-0.90;1.00
4699;DHT22;33708;49.466;11.176;2024-01-30T00:11:04;-0.70;1.00
4699;DHT22;33708;49.466;11.176;2024-01-30T00:13:30;-0.90;1.00
4699;DHT22;33708;49.466;11.176;2024-01-30T00:15:55;-0.90;1.00
4699;DHT22;33708;49.466;11.176;2024-01-30T00:18:21;-1.00;1.00
4699;DHT22;33708;49.466;11.176;2024-01-30T00:20:47;-1.00;1.00
4699;DHT22;33708;49.466;11.176;2024-01-30T00:23:13;-1.00;1.00
4699;DHT22;33708;49.466;11.176;2024-01-30T00:25:38;-1.10;1.00
4699;DHT22;33708;49.466;11.176;2024-01-30T00:28:04;-1.10;1.00
4699;DHT22;33708;49.466;11.176;2024-01-30T00:30:29;-1.10;1.00
4699;DHT22;33708;49.466;11.176;2024-01-30T00:32:55;-1.30;1.00
4699;DHT22;33708;49.466;11.176;2024-01-30T00:35:20;-1.20;1.00
4699;DHT22;33708;49.466;11.176;2024-01-30T00:37:48;-1.20;1.00
4699;DHT22;33708;49.466;11.176;2024-01-30T00:40:13;-1.20;1.00
4699;DHT22;33708;49.466;11.176;2024-01-30T00:42:42;-1.20;1.00
4699;DHT22;33708;49.466;11.176;2024-01-30T00:45:17;-1.10;1.00
4699;DHT22;33708;49.466;11.176;2024-01-30T00:47:43;-1.10;1.00
4699;DHT22;33708;49.466;11.176;2024-01-30T00:50:09;-1.10;1.00
4699;DHT22;33708;49.466;11.176;2024-01-30T00:52:35;-1.10;1.00
4699;DHT22;33708;49.466;11.176;2024-01-30T00:55:01;-1.10;1.00
4699;DHT22;33708;49.466;11.176;2024-01-30T00:57:27;-1.00;1.00
4699;DHT22;33708;49.466;11.176;2024-01-30T00:59:52;-0.80;1.00
4699;DHT22;33708;49.466;11.176;2024-01-30T01:02:18;-1.00;1.00
4699;DHT22;33708;49.466;11.176;2024-01-30T01:04:44;-1.00;1.00
4699;DHT22;33708;49.466;11.176;2024-01-30T01:07:11;-1.00;1.00
4699;DHT22;33708;49.466;11.176;2024-01-30T01:09:36;-1.00;1.00
4699;DHT22;33708;49.466;11.176;2024-01-30T01:12:03;-1.00;1.00
4699;DHT22;33708;49.466;11.176;2024-01-30T01:14:29;-1.00;1.00
4699;DHT22;33708;49.466;11.176;2024-01-30T01:16:54;-1.00;1.00
4699;DHT22;33708;49.466;11.176;2024-01-30T01:19:20;-1.00;1.00
4699;DHT22;33708;49.466;11.176;2024-01-30T01:21:45;-1.00;1.00
4699;DHT22;33708;49.466;11.176;2024-01-30T01:24:11;-1.00;1.00
4699;DHT22;33708;49.466;11.176;2024-01-30T01:26:36;-0.90;1.00
4699;DHT22;33708;49.466;11.176;2024-01-30T01:29:02;-0.90;1.00
4699;DHT22;33708;49.466;11.176;2024-01-30T01:31:38;-0.90;1.00
4699;DHT22;33708;49.466;11.176;2024-01-30T01:34:12;-0.80;1.00
4699;DHT22;33708;49.466;11.176;2024-01-30T01:36:38;-0.80;1.00
4699;DHT22;33708;49.466;11.176;2024-01-30T01:39:04;-0.80;1.00
4699;DHT22;33708;49.466;11.176;2024-01-30T01:41:30;-0.80;1.00
4699;DHT22;33708;49.466;11.176;2024-01-30T01:43:57;-1.00;1.00
4699;DHT22;33708;49.466;11.176;2024-01-30T01:46:23;-1.10;1.00
4699;DHT22;33708;49.466;11.176;2024-01-30T01:48:49;-1.20;1.00
4699;DHT22;33708;49.466;11.176;2024-01-30T01:51:15;-1.10;1.00
4699;DHT22;33708;49.466;11.176;2024-01-30T01:53:41;-1.20;1.00
4699;DHT22;33708;49.466;11.176;2024-01-30T01:56:07;-1.20;1.00
4699;DHT22;33708;49.466;11.176;2024-01-30T01:58:33;-1.20;1.00
4699;DHT22;33708;49.466;11.176;2024-01-30T02:00:59;-1.50;1.00
4699;DHT22;33708;49.466;11.176;2024-01-30T02:03:24;-1.10;1.00
4699;DHT22;33708;49.466;11.176;2024-01-30T02:05:53;-1.00;1.00
4699;DHT22;33708;49.466;11.176;2024-01-30T02:08:20;-1.10;1.00
4699;DHT22;33708;49.466;11.176;2024-01-30T02:10:46;-1.10;1.00
4699;DHT22;33708;49.466;11.176;2024-01-30T02:13:11;-1.20;1.00
4699;DHT22;33708;49.466;11.176;2024-01-30T02:15:37;-1.20;1.00
4699;DHT22;33708;49.466;11.176;2024-01-30T02:18:02;-1.20;1.00
4699;DHT22;33708;49.466;11.176;2024-01-30T02:20:29;-0.90;1.00
4699;DHT22;33708;49.466;11.176;2024-01-30T02:22:58;-0.80;1.00
4699;DHT22;33708;49.466;11.176;2024-01-30T02:25:35;-0.80;1.00
4699;DHT22;33708;49.466;11.176;2024-01-30T02:28:01;-0.60;1.00
4699;DHT22;33708;49.466;11.176;2024-01-30T02:30:26;-0.50;1.00
4699;DHT22;33708;49.466;11.176;2024-01-30T02:32:52;-0.50;1.00
4699;DHT22;33708;49.466;11.176;2024-01-30T02:35:17;-0.40;1.00
4699;DHT22;33708;49.466;11.176;2024-01-30T02:37:43;-0.20;1.00
4699;DHT22;33708;49.466;11.176;2024-01-30T02:40:09;-0.30;1.00
4699;DHT22;33708;49.466;11.176;2024-01-30T02:42:34;-0.30;1.00
4699;DHT22;33708;49.466;11.176;2024-01-30T02:45:00;-0.30;1.00
4699;DHT22;33708;49.466;11.176;2024-01-30T02:47:25;-0.30;1.00
4699;DHT22;33708;49.466;11.176;2024-01-30T02:49:51;-0.20;1.00
4699;DHT22;33708;49.466;11.176;2024-01-30T02:52:17;-0.20;1.00
4699;DHT22;33708;49.466;11.176;2024-01-30T02:54:42;-0.30;1.00
4699;DHT22;33708;49.466;11.176;2024-01-30T02:57:08;-0.40;1.00
4699;DHT22;33708;49.466;11.176;2024-01-30T02:59:33;-0.40;1.00
4699;DHT22;33708;49.466;11.176;2024-01-30T03:02:03;-0.60;1.00
4699;DHT22;33708;49.466;11.176;2024-01-30T03:04:28;-0.60;1.00
4699;DHT22;33708;49.466;11.176;2024-01-30T03:06:55;-0.60;1.00
4699;DHT22;33708;49.466;11.176;2024-01-30T03:09:21;-0.50;1.00
4699;DHT22;33708;49.466;11.176;2024-01-30T03:11:46;-0.50;1.00
4699;DHT22;33708;49.466;11.176;2024-01-30T03:14:12;-0.50;1.00
4699;DHT22;33708;49.466;11.176;2024-01-30T03:16:37;-0.60;1.00
4699;DHT22;33708;49.466;11.176;2024-01-30T03:21:30;-0.70;1.00
4699;DHT22;33708;49.466;11.176;2024-01-30T03:23:56;-0.80;1.00
4699;DHT22;33708;49.466;11.176;2024-01-30T03:26:21;-0.90;1.00
4699;DHT22;33708;49.466;11.176;2024-01-30T03:28:47;-0.90;1.00
4699;DHT22;33708;49.466;11.176;2024-01-30T03:31:15;-0.90;1.00
4699;DHT22;33708;49.466;11.176;2024-01-30T03:33:41;-0.80;1.00
4699;DHT22;33708;49.466;11.176;2024-01-30T03:36:07;-0.90;1.00
4699;DHT22;33708;49.466;11.176;2024-01-30T03:38:33;-0.70;1.00
4699;DHT22;33708;49.466;11.176;2024-01-30T03:40:59;-0.70;1.00
4699;DHT22;33708;49.466;11.176;2024-01-30T03:43:24;-0.60;1.00
4699;DHT22;33708;49.466;11.176;2024-01-30T03:45:50;-0.60;1.00
4699;DHT22;33708;49.466;11.176;2024-01-30T03:48:15;-0.70;1.00
4699;DHT22;33708;49.466;11.176;2024-01-30T03:50:41;-0.80;1.00
4699;DHT22;33708;49.466;11.176;2024-01-30T03:53:06;-0.90;1.00
4699;DHT22;33708;49.466;11.176;2024-01-30T03:55:32;-0.80;1.00
4699;DHT22;33708;49.466;11.176;2024-01-30T03:57:58;-0.70;1.00
4699;DHT22;33708;49.466;11.176;2024-01-30T04:00:23;-0.70;1.00
4699;DHT22;33708;49.466;11.176;2024-01-30T04:02:49;-0.70;1.00
4699;DHT22;33708;49.466;11.176;2024-01-30T04:05:16;-0.90;1.00
4699;DHT22;33708;49.466;11.176;2024-01-30T04:07:44;-0.80;1.00
4699;DHT22;33708;49.466;11.176;2024-01-30T04:10:10;-0.80;1.00
4699;DHT22;33708;49.466;11.176;2024-01-30T04:12:36;-0.80;1.00
4699;DHT22;33708;49.466;11.176;2024-01-30T04:15:02;-0.80;1.00
4699;DHT22;33708;49.466;11.176;2024-01-30T04:17:28;-0.70;1.00
4699;DHT22;33708;49.466;11.176;2024-01-30T04:19:54;-0.80;1.00
4699;DHT22;33708;49.466;11.176;2024-01-30T04:22:20;-0.90;1.00
4699;DHT22;33708;49.466;11.176;2024-01-30T04:24:46;-0.90;1.00
4699;DHT22;33708;49.466;11.176;2024-01-30T04:27:11;-1.00;1.00
4699;DHT22;33708;49.466;11.176;2024-01-30T04:29:37;-1.10;1.00
4699;DHT22;33708;49.466;11.176;2024-01-30T04:32:03;-0.90;1.00
4699;DHT22;33708;49.466;11.176;2024-01-30T04:34:28;-0.90;1.00
4699;DHT22;33708;49.466;11.176;2024-01-30T04:36:54;-0.90;1.00
4699;DHT22;33708;49.466;11.176;2024-01-30T04:39:20;-0.80;1.00
4699;DHT22;33708;49.466;11.176;2024-01-30T04:41:45;-0.90;1.00
4699;DHT22;33708;49.466;11.176;2024-01-30T04:44:11;-0.90;1.00
4699;DHT22;33708;49.466;11.176;2024-01-30T04:46:36;-0.80;1.00
4699;DHT22;33708;49.466;11.176;2024-01-30T04:49:02;-0.70;1.00
4699;DHT22;33708;49.466;11.176;2024-01-30T04:51:28;-0.70;1.00
4699;DHT22;33708;49.466;11.176;2024-01-30T04:53:55;-0.70;1.00
4699;DHT22;33708;49.466;11.176;2024-01-30T04:56:20;-0.70;1.00
4699;DHT22;33708;49.466;11.176;2024-01-30T04:58:46;-0.80;1.00
4699;DHT22;33708;49.466;11.176;2024-01-30T05:01:16;-0.90;1.00
4699;DHT22;33708;49.466;11.176;2024-01-30T05:03:41;-0.80;1.00
4699;DHT22;33708;49.466;11.176;2024-01-30T05:06:07;-0.70;1.00
4699;DHT22;33708;49.466;11.176;2024-01-30T05:08:33;-0.70;1.00
4699;DHT22;33708;49.466;11.176;2024-01-30T05:11:01;-0.80;1.00
4699;DHT22;33708;49.466;11.176;2024-01-30T05:13:31;-0.70;1.00
4699;DHT22;33708;49.466;11.176;2024-01-30T05:15:57;-0.80;1.00
4699;DHT22;33708;49.466;11.176;2024-01-30T05:18:23;-0.80;1.00
4699;DHT22;33708;49.466;11.176;2024-01-30T05:20:51;-0.90;1.00
4699;DHT22;33708;49.466;11.176;2024-01-30T05:23:17;-0.70;1.00
4699;DHT22;33708;49.466;11.176;2024-01-30T05:25:42;-0.50;1.00
4699;DHT22;33708;49.466;11.176;2024-01-30T05:28:08;-0.50;1.00
4699;DHT22;33708;49.466;11.176;2024-01-30T05:30:33;-0.70;1.00
4699;DHT22;33708;49.466;11.176;2024-01-30T05:32:59;-0.70;1.00
4699;DHT22;33708;49.466;11.176;2024-01-30T05:37:51;-0.90;1.00
4699;DHT22;33708;49.466;11.176;2024-01-30T05:40:16;-0.80;1.00
4699;DHT22;33708;49.466;11.176;2024-01-30T05:42:42;-0.80;1.00
4699;DHT22;33708;49.466;11.176;2024-01-30T05:45:08;-0.80;1.00
4699;DHT22;33708;49.466;11.176;2024-01-30T05:47:35;-0.70;1.00
4699;DHT22;33708;49.466;11.176;2024-01-30T05:50:00;-0.80;1.00
4699;DHT22;33708;49.466;11.176;2024-01-30T05:52:26;-0.80;1.00
4699;DHT22;33708;49.466;11.176;2024-01-30T05:54:51;-0.80;1.00
4699;DHT22;33708;49.466;11.176;2024-01-30T05:57:17;-0.80;1.00
4699;DHT22;33708;49.466;11.176;2024-01-30T05:59:44;-0.70;1.00
4699;DHT22;33708;49.466;11.176;2024-01-30T06:02:12;-0.80;1.00
4699;DHT22;33708;49.466;11.176;2024-01-30T06:04:38;-0.80;1.00
4699;DHT22;33708;49.466;11.176;2024-01-30T06:07:03;-0.70;1.00
4699;DHT22;33708;49.466;11.176;2024-01-30T06:09:31;-0.80;1.00
4699;DHT22;33708;49.466;11.176;2024-01-30T06:11:57;-0.60;1.00
4699;DHT22;33708;49.466;11.176;2024-01-30T06:14:22;-0.50;1.00
4699;DHT22;33708;49.466;11.176;2024-01-30T06:16:49;-0.50;1.00
4699;DHT22;33708;49.466;11.176;2024-01-30T06:19:14;-0.40;1.00
4699;DHT22;33708;49.466;11.176;2024-01-30T06:21:40;-0.40;1.00
4699;DHT22;33708;49.466;11.176;2024-01-30T06:24:05;-0.50;1.00
4699;DHT22;33708;49.466;11.176;2024-01-30T06:26:31;-0.40;1.00
4699;DHT22;33708;49.466;11.176;2024-01-30T06:28:57;-0.50;1.00
4699;DHT22;33708;49.466;11.176;2024-01-30T06:31:22;-0.50;1.00
4699;DHT22;33708;49.466;11.176;2024-01-30T06:33:49;-0.50;1.00
4699;DHT22;33708;49.466;11.176;2024-01-30T06:36:14;-0.40;1.00
4699;DHT22;33708;49.466;11.176;2024-01-30T06:38:41;-0.40;1.00
4699;DHT22;33708;49.466;11.176;2024-01-30T06:41:06;-0.30;1.00
4699;DHT22;33708;49.466;11.176;2024-01-30T06:43:32;-0.20;1.00
4699;DHT22;33708;49.466;11.176;2024-01-30T06:45:57;-0.10;1.00
4699;DHT22;33708;49.466;11.176;2024-01-30T06:48:23;0.00;1.00
4699;DHT22;33708;49.466;11.176;2024-01-30T06:50:49;0.20;1.00
4699;DHT22;33708;49.466;11.176;2024-01-30T06:53:16;0.20;1.00
4699;DHT22;33708;49.466;11.176;2024-01-30T06:55:41;0.00;1.00
4699;DHT22;33708;49.466;11.176;2024-01-30T07:00:33;0.30;1.00
4699;DHT22;33708;49.466;11.176;2024-01-30T07:02:59;0.30;1.00
4699;DHT22;33708;49.466;11.176;2024-01-30T07:05:24;0.20;1.00
4699;DHT22;33708;49.466;11.176;2024-01-30T07:07:50;0.20;1.00
4699;DHT22;33708;49.466;11.176;2024-01-30T07:10:16;0.40;1.00
4699;DHT22;33708;49.466;11.176;2024-01-30T07:12:41;0.50;1.00
4699;DHT22;33708;49.466;11.176;2024-01-30T07:15:07;0.40;1.00
4699;DHT22;33708;49.466;11.176;2024-01-30T07:17:35;0.40;1.00
4699;DHT22;33708;49.466;11.176;2024-01-30T07:20:01;0.50;1.00
4699;DHT22;33708;49.466;11.176;2024-01-30T07:22:29;0.50;1.00
4699;DHT22;33708;49.466;11.176;2024-01-30T07:24:55;1.00;1.00
4699;DHT22;33708;49.466;11.176;2024-01-30T07:27:21;1.50;1.00
4699;DHT22;33708;49.466;11.176;2024-01-30T07:29:47;1.60;1.00
4699;DHT22;33708;49.466;11.176;2024-01-30T07:32:12;2.20;1.00
4699;DHT22;33708;49.466;11.176;2024-01-30T07:34:38;2.10;1.00
4699;DHT22;33708;49.466;11.176;2024-01-30T07:37:03;1.70;1.00
4699;DHT22;33708;49.466;11.176;2024-01-30T07:39:29;1.60;1.00
4699;DHT22;33708;49.466;11.176;2024-01-30T07:41:54;1.60;1.00
4699;DHT22;33708;49.466;11.176;2024-01-30T07:44:20;2.10;1.00
4699;DHT22;33708;49.466;11.176;2024-01-30T07:46:46;2.60;1.00
4699;DHT22;33708;49.466;11.176;2024-01-30T07:49:12;3.30;1.00
4699;DHT22;33708;49.466;11.176;2024-01-30T07:51:39;2.80;1.00
4699;DHT22;33708;49.466;11.176;2024-01-30T07:54:05;3.10;1.00
4699;DHT22;33708;49.466;11.176;2024-01-30T07:56:30;3.50;1.00
4699;DHT22;33708;49.466;11.176;2024-01-30T07:58:56;4.10;1.00
4699;DHT22;33708;49.466;11.176;2024-01-30T08:01:22;4.00;1.00
4699;DHT22;33708;49.466;11.176;2024-01-30T08:03:47;4.40;1.00
4699;DHT22;33708;49.466;11.176;2024-01-30T08:06:13;5.60;1.00
4699;DHT22;33708;49.466;11.176;2024-01-30T08:08:39;5.20;1.00
4699;DHT22;33708;49.466;11.176;2024-01-30T08:11:05;4.50;1.00
4699;DHT22;33708;49.466;11.176;2024-01-30T08:13:30;4.00;1.00
4699;DHT22;33708;49.466;11.176;2024-01-30T08:15:56;3.80;1.00
4699;DHT22;33708;49.466;11.176;2024-01-30T08:18:22;3.80;1.00
4699;DHT22;33708;49.466;11.176;2024-01-30T08:20:47;3.80;1.00
4699;DHT22;33708;49.466;11.176;2024-01-30T08:23:14;3.90;1.00
4699;DHT22;33708;49.466;11.176;2024-01-30T08:25:40;4.40;1.00
4699;DHT22;33708;49.466;11.176;2024-01-30T08:28:05;4.70;1.00
4699;DHT22;33708;49.466;11.176;2024-01-30T08:30:32;5.00;1.00
4699;DHT22;33708;49.466;11.176;2024-01-30T08:32:58;5.10;1.00
4699;DHT22;33708;49.466;11.176;2024-01-30T08:35:23;4.70;1.00
4699;DHT22;33708;49.466;11.176;2024-01-30T08:37:49;4.00;1.00
4699;DHT22;33708;49.466;11.176;2024-01-30T08:40:14;3.90;1.00
4699;DHT22;33708;49.466;11.176;2024-01-30T08:42:40;4.40;1.00
4699;DHT22;33708;49.466;11.176;2024-01-30T08:45:06;4.30;1.00
4699;DHT22;33708;49.466;11.176;2024-01-30T08:47:32;4.10;1.00
4699;DHT22;33708;49.466;11.176;2024-01-30T08:49:58;4.40;1.00
4699;DHT22;33708;49.466;11.176;2024-01-30T08:52:24;5.00;1.00
4699;DHT22;33708;49.466;11.176;2024-01-30T08:54:49;4.90;1.00
4699;DHT22;33708;49.466;11.176;2024-01-30T08:57:15;4.40;1.00
4699;DHT22;33708;49.466;11.176;2024-01-30T08:59:40;4.10;1.00
4699;DHT22;33708;49.466;11.176;2024-01-30T09:02:06;4.30;1.00
4699;DHT22;33708;49.466;11.176;2024-01-30T09:04:32;4.20;1.00
4699;DHT22;33708;49.466;11.176;2024-01-30T09:06:57;4.50;1.00
4699;DHT22;33708;49.466;11.176;2024-01-30T09:09:23;4.50;1.00
4699;DHT22;33708;49.466;11.176;2024-01-30T09:11:48;4.50;1.00
4699;DHT22;33708;49.466;11.176;2024-01-30T09:14:14;4.50;1.00
4699;DHT22;33708;49.466;11.176;2024-01-30T09:16:39;4.60;1.00
4699;DHT22;33708;49.466;11.176;2024-01-30T09:19:05;4.90;1.00
4699;DHT22;33708;49.466;11.176;2024-01-30T09:21:31;5.30;1.00
4699;DHT22;33708;49.466;11.176;2024-01-30T09:24:02;5.10;1.00
4699;DHT22;33708;49.466;11.176;2024-01-30T09:26:28;5.10;1.00
4699;DHT22;33708;49.466;11.176;2024-01-30T09:28:54;5.30;1.00
4699;DHT22;33708;49.466;11.176;2024-01-30T09:31:19;5.50;1.00
4699;DHT22;33708;49.466;11.176;2024-01-30T09:33:45;5.50;1.00
4699;DHT22;33708;49.466;11.176;2024-01-30T09:36:12;5.50;1.00
4699;DHT22;33708;49.466;11.176;2024-01-30T09:38:40;5.70;1.00
4699;DHT22;33708;49.466;11.176;2024-01-30T09:41:09;5.70;1.00
4699;DHT22;33708;49.466;11.176;2024-01-30T09:43:38;5.60;1.00
4699;DHT22;33708;49.466;11.176;2024-01-30T09:46:05;5.80;1.00
4699;DHT22;33708;49.466;11.176;2024-01-30T09:48:33;6.10;1.00
4699;DHT22;33708;49.466;11.176;2024-01-30T09:51:00;6.00;1.00
4699;DHT22;33708;49.466;11.176;2024-01-30T09:53:25;6.50;1.00
4699;DHT22;33708;49.466;11.176;2024-01-30T09:55:51;7.00;1.00
4699;DHT22;33708;49.466;11.176;2024-01-30T09:58:17;7.30;1.00
4699;DHT22;33708;49.466;11.176;2024-01-30T10:00:43;7.00;1.00
4699;DHT22;33708;49.466;11.176;2024-01-30T10:03:08;6.60;1.00
4699;DHT22;33708;49.466;11.176;2024-01-30T10:05:35;6.70;1.00
4699;DHT22;33708;49.466;11.176;2024-01-30T10:08:06;7.10;1.00
4699;DHT22;33708;49.466;11.176;2024-01-30T10:10:33;7.30;1.00
4699;DHT22;33708;49.466;11.176;2024-01-30T10:12:59;7.20;1.00
4699;DHT22;33708;49.466;11.176;2024-01-30T10:15:25;7.20;1.00
4699;DHT22;33708;49.466;11.176;2024-01-30T10:17:53;7.10;1.00
4699;DHT22;33708;49.466;11.176;2024-01-30T10:20:18;7.30;1.00
4699;DHT22;33708;49.466;11.176;2024-01-30T10:22:45;7.80;1.00
4699;DHT22;33708;49.466;11.176;2024-01-30T10:25:11;7.60;1.00
4699;DHT22;33708;49.466;11.176;2024-01-30T10:27:36;7.60;1.00
4699;DHT22;33708;49.466;11.176;2024-01-30T10:30:05;7.60;1.00
4699;DHT22;33708;49.466;11.176;2024-01-30T10:32:30;7.50;1.00
4699;DHT22;33708;49.466;11.176;2024-01-30T10:34:56;7.70;1.00
4699;DHT22;33708;49.466;11.176;2024-01-30T10:37:25;8.00;1.00
4699;DHT22;33708;49.466;11.176;2024-01-30T10:39:53;8.10;1.00
4699;DHT22;33708;49.466;11.176;2024-01-30T10:42:20;8.20;1.00
4699;DHT22;33708;49.466;11.176;2024-01-30T10:45:02;8.20;1.00
4699;DHT22;33708;49.466;11.176;2024-01-30T10:47:31;8.40;1.00
4699;DHT22;33708;49.466;11.176;2024-01-30T10:49:59;8.20;1.00
4699;DHT22;33708;49.466;11.176;2024-01-30T10:52:26;8.40;1.00
4699;DHT22;33708;49.466;11.176;2024-01-30T10:54:54;8.40;1.00
4699;DHT22;33708;49.466;11.176;2024-01-30T10:57:23;8.60;1.00
4699;DHT22;33708;49.466;11.176;2024-01-30T10:59:49;8.70;1.00
4699;DHT22;33708;49.466;11.176;2024-01-30T11:02:16;8.80;1.00
4699;DHT22;33708;49.466;11.176;2024-01-30T11:04:43;8.70;1.00
4699;DHT22;33708;49.466;11.176;2024-01-30T11:07:19;8.30;1.00
4699;DHT22;33708;49.466;11.176;2024-01-30T11:12:15;8.80;1.00
4699;DHT22;33708;49.466;11.176;2024-01-30T11:14:41;8.70;1.00
4699;DHT22;33708;49.466;11.176;2024-01-30T11:17:06;8.80;1.00
4699;DHT22;33708;49.466;11.176;2024-01-30T11:19:32;9.10;1.00
4699;DHT22;33708;49.466;11.176;2024-01-30T11:21:59;9.10;1.00
4699;DHT22;33708;49.466;11.176;2024-01-30T11:24:25;9.30;1.00
4699;DHT22;33708;49.466;11.176;2024-01-30T11:27:00;9.50;1.00
4699;DHT22;33708;49.466;11.176;2024-01-30T11:29:30;9.20;1.00
4699;DHT22;33708;49.466;11.176;2024-01-30T11:31:57;9.40;1.00
4699;DHT22;33708;49.466;11.176;2024-01-30T11:34:23;9.60;1.00
4699;DHT22;33708;49.466;11.176;2024-01-30T11:36:56;9.40;1.00
4699;DHT22;33708;49.466;11.176;2024-01-30T11:39:26;9.40;1.00
4699;DHT22;33708;49.466;11.176;2024-01-30T11:41:52;9.70;1.00
4699;DHT22;33708;49.466;11.176;2024-01-30T11:44:21;9.30;1.00
4699;DHT22;33708;49.466;11.176;2024-01-30T11:46:53;9.50;1.00
4699;DHT22;33708;49.466;11.176;2024-01-30T11:49:19;9.50;1.00
4699;DHT22;33708;49.466;11.176;2024-01-30T11:51:48;9.70;1.00
4699;DHT22;33708;49.466;11.176;2024-01-30T11:54:18;9.90;48.10
4699;DHT22;33708;49.466;11.176;2024-01-30T11:56:43;9.90;45.70
4699;DHT22;33708;49.466;11.176;2024-01-30T11:59:09;9.50;43.10
4699;DHT22;33708;49.466;11.176;2024-01-30T12:01:35;9.30;41.00
4699;DHT22;33708;49.466;11.176;2024-01-30T12:04:01;9.60;42.70
4699;DHT22;33708;49.466;11.176;2024-01-30T12:06:27;9.70;42.20
4699;DHT22;33708;49.466;11.176;2024-01-30T12:09:00;9.70;43.20
4699;DHT22;33708;49.466;11.176;2024-01-30T12:11:26;9.60;41.60
4699;DHT22;33708;49.466;11.176;2024-01-30T12:13:53;9.60;41.20
4699;DHT22;33708;49.466;11.176;2024-01-30T12:16:20;9.60;41.20
4699;DHT22;33708;49.466;11.176;2024-01-30T12:18:46;9.80;41.90
4699;DHT22;33708;49.466;11.176;2024-01-30T12:21:11;9.90;42.90
4699;DHT22;33708;49.466;11.176;2024-01-30T12:23:37;10.10;40.70
4699;DHT22;33708;49.466;11.176;2024-01-30T12:26:04;9.90;39.40
4699;DHT22;33708;49.466;11.176;2024-01-30T12:28:32;10.00;38.20
4699;DHT22;33708;49.466;11.176;2024-01-30T12:31:04;9.90;38.00
4699;DHT22;33708;49.466;11.176;2024-01-30T12:33:30;10.10;38.20
4699;DHT22;33708;49.466;11.176;2024-01-30T12:35:57;10.10;38.70
4699;DHT22;33708;49.466;11.176;2024-01-30T12:38:24;10.20;38.80
4699;DHT22;33708;49.466;11.176;2024-01-30T12:40:56;10.10;37.30
4699;DHT22;33708;49.466;11.176;2024-01-30T12:43:23;10.40;40.00
4699;DHT22;33708;49.466;11.176;2024-01-30T12:45:49;10.50;53.80
4699;DHT22;33708;49.466;11.176;2024-01-30T12:48:15;10.60;43.40
4699;DHT22;33708;49.466;11.176;2024-01-30T12:50:41;10.60;41.60
4699;DHT22;33708;49.466;11.176;2024-01-30T12:53:07;10.50;39.20
4699;DHT22;33708;49.466;11.176;2024-01-30T12:55:34;10.70;43.00
4699;DHT22;33708;49.466;11.176;2024-01-30T12:58:00;10.70;43.30
4699;DHT22;33708;49.466;11.176;2024-01-30T13:00:25;10.70;40.00
4699;DHT22;33708;49.466;11.176;2024-01-30T13:02:51;10.50;37.30
4699;DHT22;33708;49.466;11.176;2024-01-30T13:05:17;10.50;39.10
4699;DHT22;33708;49.466;11.176;2024-01-30T13:07:42;10.50;38.80
4699;DHT22;33708;49.466;11.176;2024-01-30T13:10:08;10.50;38.30
4699;DHT22;33708;49.466;11.176;2024-01-30T13:12:34;10.50;37.10
4699;DHT22;33708;49.466;11.176;2024-01-30T13:15:00;10.50;36.90
4699;DHT22;33708;49.466;11.176;2024-01-30T13:17:27;10.30;36.40
4699;DHT22;33708;49.466;11.176;2024-01-30T13:19:53;10.50;38.90
4699;DHT22;33708;49.466;11.176;2024-01-30T13:22:19;10.50;39.00
4699;DHT22;33708;49.466;11.176;2024-01-30T13:24:47;10.60;41.00
4699;DHT22;33708;49.466;11.176;2024-01-30T13:27:13;10.80;43.20
4699;DHT22;33708;49.466;11.176;2024-01-30T13:29:38;11.00;42.40
4699;DHT22;33708;49.466;11.176;2024-01-30T13:32:04;11.10;43.90
4699;DHT22;33708;49.466;11.176;2024-01-30T13:34:30;10.90;40.40
4699;DHT22;33708;49.466;11.176;2024-01-30T13:36:56;10.80;39.10
4699;DHT22;33708;49.466;11.176;2024-01-30T13:39:22;10.80;38.40
4699;DHT22;33708;49.466;11.176;2024-01-30T13:41:48;10.70;38.00
4699;DHT22;33708;49.466;11.176;2024-01-30T13:44:14;10.50;35.90
4699;DHT22;33708;49.466;11.176;2024-01-30T13:46:42;10.70;37.10
4699;DHT22;33708;49.466;11.176;2024-01-30T13:49:07;10.70;38.40
4699;DHT22;33708;49.466;11.176;2024-01-30T13:51:33;10.80;38.10
4699;DHT22;33708;49.466;11.176;2024-01-30T13:53:58;10.90;39.70
4699;DHT22;33708;49.466;11.176;2024-01-30T13:56:24;10.80;38.70
4699;DHT22;33708;49.466;11.176;2024-01-30T13:58:52;10.80;39.10
4699;DHT22;33708;49.466;11.176;2024-01-30T14:01:18;10.90;39.40
4699;DHT22;33708;49.466;11.176;2024-01-30T14:03:44;10.70;40.10
4699;DHT22;33708;49.466;11.176;2024-01-30T14:06:11;10.80;40.10
4699;DHT22;33708;49.466;11.176;2024-01-30T14:08:36;10.70;36.80
4699;DHT22;33708;49.466;11.176;2024-01-30T14:11:02;10.70;39.60
4699;DHT22;33708;49.466;11.176;2024-01-30T14:13:28;10.60;35.10
4699;DHT22;33708;49.466;11.176;2024-01-30T14:15:55;10.50;34.70
4699;DHT22;33708;49.466;11.176;2024-01-30T14:18:21;10.50;34.10
4699;DHT22;33708;49.466;11.176;2024-01-30T14:20:47;10.50;36.90
4699;DHT22;33708;49.466;11.176;2024-01-30T14:23:12;10.50;36.50
4699;DHT22;33708;49.466;11.176;2024-01-30T14:25:38;10.50;38.00
4699;DHT22;33708;49.466;11.176;2024-01-30T14:28:03;10.40;34.10
4699;DHT22;33708;49.466;11.176;2024-01-30T14:30:29;10.50;37.10
4699;DHT22;33708;49.466;11.176;2024-01-30T14:32:55;10.40;37.50
4699;DHT22;33708;49.466;11.176;2024-01-30T14:35:21;10.30;37.50
4699;DHT22;33708;49.466;11.176;2024-01-30T14:37:47;10.30;36.90
4699;DHT22;33708;49.466;11.176;2024-01-30T14:40:12;10.30;36.70
4699;DHT22;33708;49.466;11.176;2024-01-30T14:42:38;10.20;36.90
4699;DHT22;33708;49.466;11.176;2024-01-30T14:45:05;10.10;35.50
4699;DHT22;33708;49.466;11.176;2024-01-30T14:47:31;10.00;32.40
4699;DHT22;33708;49.466;11.176;2024-01-30T14:49:57;9.90;33.20
4699;DHT22;33708;49.466;11.176;2024-01-30T14:52:23;9.90;34.50
4699;DHT22;33708;49.466;11.176;2024-01-30T14:54:48;9.80;32.60
4699;DHT22;33708;49.466;11.176;2024-01-30T14:57:14;9.70;34.60
4699;DHT22;33708;49.466;11.176;2024-01-30T14:59:40;9.70;33.30
4699;DHT22;33708;49.466;11.176;2024-01-30T15:02:06;9.60;33.80
4699;DHT22;33708;49.466;11.176;2024-01-30T15:04:31;9.60;34.20
4699;DHT22;33708;49.466;11.176;2024-01-30T15:06:57;9.50;35.80
4699;DHT22;33708;49.466;11.176;2024-01-30T15:09:23;9.50;34.10
4699;DHT22;33708;49.466;11.176;2024-01-30T15:11:49;9.50;33.80
4699;DHT22;33708;49.466;11.176;2024-01-30T15:14:15;9.40;33.00
4699;DHT22;33708;49.466;11.176;2024-01-30T15:16:41;9.40;32.20
4699;DHT22;33708;49.466;11.176;2024-01-30T15:19:07;9.40;34.50
4699;DHT22;33708;49.466;11.176;2024-01-30T15:21:33;9.30;32.90
4699;DHT22;33708;49.466;11.176;2024-01-30T15:23:58;9.30;35.50
4699;DHT22;33708;49.466;11.176;2024-01-30T15:26:24;9.20;35.00
4699;DHT22;33708;49.466;11.176;2024-01-30T15:28:50;9.20;34.70
4699;DHT22;33708;49.466;11.176;2024-01-30T15:31:16;9.00;32.50
4699;DHT22;33708;49.466;11.176;2024-01-30T15:33:42;8.90;33.90
4699;DHT22;33708;49.466;11.176;2024-01-30T15:36:08;8.80;33.30
4699;DHT22;33708;49.466;11.176;2024-01-30T15:38:34;8.70;32.30
4699;DHT22;33708;49.466;11.176;2024-01-30T15:41:00;8.60;33.40
4699;DHT22;33708;49.466;11.176;2024-01-30T15:43:26;8.40;33.30
4699;DHT22;33708;49.466;11.176;2024-01-30T15:45:52;8.40;32.70
4699;DHT22;33708;49.466;11.176;2024-01-30T15:48:18;8.30;33.80
4699;DHT22;33708;49.466;11.176;2024-01-30T15:50:44;8.20;32.40
4699;DHT22;33708;49.466;11.176;2024-01-30T15:53:10;8.00;32.90